createdAt,value
2024-04-15T00:00:49.254Z,11.47
2024-04-15T00:05:50.856Z,11.35
2024-04-15T00:10:52.464Z,11.23
2024-04-15T00:15:55.991Z,11.18
2024-04-15T00:20:58.895Z,11.15
2024-04-15T00:26:00.351Z,11.11
2024-04-15T00:31:02.049Z,11.10
2024-04-15T00:36:03.757Z,11.10
2024-04-15T00:41:05.451Z,11.07
2024-04-15T00:46:06.998Z,10.99
2024-04-15T00:51:08.893Z,10.84
2024-04-15T00:56:11.597Z,10.73
2024-04-15T01:01:15.130Z,10.73
2024-04-15T01:06:16.685Z,10.74
2024-04-15T01:11:18.167Z,10.73
2024-04-15T01:16:19.738Z,10.71
2024-04-15T01:21:21.318Z,10.67
2024-04-15T01:26:22.793Z,10.61
2024-04-15T01:31:24.609Z,10.54
2024-04-15T01:36:26.431Z,10.48
2024-04-15T01:41:27.871Z,10.45
2024-04-15T01:46:29.290Z,10.39
2024-04-15T01:51:31.498Z,10.33
2024-04-15T01:56:33.038Z,10.20
2024-04-15T02:01:37.746Z,10.08
2024-04-15T02:06:39.226Z,10.07
2024-04-15T02:11:40.606Z,9.93
2024-04-15T02:16:42.025Z,9.85
2024-04-15T02:21:43.488Z,9.78
2024-04-15T02:26:44.879Z,9.63
2024-04-15T02:31:47.069Z,9.67
2024-04-15T02:36:48.681Z,9.78
2024-04-15T02:41:50.560Z,9.75
2024-04-15T02:46:51.946Z,9.77
2024-04-15T02:51:53.821Z,9.69
2024-04-15T02:56:55.775Z,9.62
2024-04-15T03:01:57.177Z,9.66
2024-04-15T03:06:58.670Z,9.71
2024-04-15T03:12:00.128Z,9.72
2024-04-15T03:17:02.996Z,9.66
2024-04-15T03:22:04.615Z,9.66
2024-04-15T03:27:06.702Z,9.62
2024-04-15T03:32:08.225Z,9.58
2024-04-15T03:37:09.910Z,9.65
2024-04-15T03:42:11.464Z,9.65
2024-04-15T03:47:13.098Z,9.65
2024-04-15T03:52:14.641Z,9.65
2024-04-15T03:57:16.069Z,9.61
2024-04-15T04:02:17.538Z,9.59
2024-04-15T04:07:19.990Z,9.61
2024-04-15T04:12:21.848Z,9.58
2024-04-15T04:17:23.310Z,9.67
2024-04-15T04:22:27.671Z,9.80
2024-04-15T04:27:29.788Z,9.89
2024-04-15T04:32:33.050Z,9.89
2024-04-15T04:37:34.783Z,9.88
2024-04-15T04:42:36.199Z,9.87
2024-04-15T04:47:37.636Z,9.92
2024-04-15T04:52:39.063Z,10.04
2024-04-15T04:57:40.505Z,10.13
2024-04-15T05:02:42.155Z,10.19
2024-04-15T05:07:43.605Z,10.27
2024-04-15T05:12:45.101Z,10.37
2024-04-15T05:17:46.807Z,10.43
2024-04-15T05:22:48.415Z,10.46
2024-04-15T05:27:49.813Z,10.48
2024-04-15T05:32:51.309Z,10.52
2024-04-15T05:37:53.073Z,10.51
2024-04-15T05:42:54.563Z,10.52
2024-04-15T05:47:56.678Z,10.53
2024-04-15T05:52:58.690Z,10.53
2024-04-15T05:58:00.124Z,10.54
2024-04-15T06:03:01.565Z,10.59
2024-04-15T06:08:03.083Z,10.66
2024-04-15T06:13:04.696Z,10.71
2024-04-15T06:18:06.664Z,10.74
2024-04-15T06:23:08.510Z,10.75
2024-04-15T06:28:10.080Z,10.71
2024-04-15T06:33:12.155Z,10.67
2024-04-15T06:38:14.506Z,10.64
2024-04-15T06:43:16.231Z,10.62
2024-04-15T06:48:17.798Z,10.61
2024-04-15T06:53:19.667Z,10.61
2024-04-15T06:58:21.568Z,10.62
2024-04-15T07:03:23.225Z,10.66
2024-04-15T07:08:26.152Z,10.76
2024-04-15T07:13:27.765Z,10.86
2024-04-15T07:18:29.242Z,10.93
2024-04-15T07:23:31.164Z,11.00
2024-04-15T07:28:32.596Z,11.05
2024-04-15T07:33:34.298Z,11.07
2024-04-15T07:38:35.853Z,11.06
2024-04-15T07:43:37.644Z,11.04
2024-04-15T07:48:39.318Z,11.00
2024-04-15T07:53:41.723Z,10.96
2024-04-15T07:58:43.125Z,10.88
2024-04-15T08:03:44.606Z,10.90
2024-04-15T08:08:46.472Z,10.92
2024-04-15T08:13:48.004Z,10.88
2024-04-15T08:18:49.987Z,10.75
2024-04-15T08:23:51.857Z,10.59
2024-04-15T08:28:53.320Z,10.54
2024-04-15T08:33:55.676Z,10.59
2024-04-15T08:38:57.239Z,10.63
2024-04-15T08:44:05.422Z,10.65
2024-04-15T08:49:08.393Z,10.66
2024-04-15T08:54:10.129Z,10.73
2024-04-15T08:59:18.089Z,10.79
2024-04-15T09:04:20.996Z,10.85
2024-04-15T09:09:22.538Z,10.86
2024-04-15T09:14:24.868Z,10.87
2024-04-15T09:19:28.057Z,10.89
2024-04-15T09:24:29.524Z,10.86
2024-04-15T09:29:30.949Z,10.82
2024-04-15T09:34:32.942Z,10.84
2024-04-15T09:39:35.604Z,10.88
2024-04-15T09:44:42.949Z,10.93
2024-04-15T09:49:47.762Z,11.00
2024-04-15T09:54:57.107Z,11.04
2024-04-15T10:00:02.919Z,11.09
2024-04-15T10:05:22.092Z,11.11
2024-04-15T10:10:25.391Z,11.12
2024-04-15T10:15:27.984Z,11.09
2024-04-15T10:20:36.731Z,11.11
2024-04-15T10:25:39.400Z,11.27
2024-04-15T10:30:42.090Z,11.45
2024-04-15T10:35:45.794Z,11.54
2024-04-15T10:40:49.794Z,11.85
2024-04-15T10:45:52.216Z,12.41
2024-04-15T10:50:53.740Z,12.92
2024-04-15T10:55:55.237Z,13.26
2024-04-15T11:00:57.121Z,13.47
2024-04-15T11:05:58.653Z,13.54
2024-04-15T11:11:00.227Z,13.52
2024-04-15T11:16:02.664Z,13.47
2024-04-15T11:21:04.826Z,13.40
2024-04-15T11:26:08.132Z,13.37
2024-04-15T11:31:10.882Z,13.37
2024-04-15T11:36:17.306Z,13.35
2024-04-15T11:41:19.525Z,13.30
2024-04-15T11:46:21.057Z,13.10
2024-04-15T11:51:23.015Z,12.98
2024-04-15T11:56:24.706Z,12.90
2024-04-15T12:01:28.356Z,12.95
2024-04-15T12:06:30.161Z,13.10
2024-04-15T12:11:31.653Z,13.29
2024-04-15T12:16:34.350Z,13.36
2024-04-15T12:21:36.169Z,13.29
2024-04-15T12:26:38.110Z,13.24
2024-04-15T12:31:39.505Z,13.24
2024-04-15T12:36:41.096Z,13.19
2024-04-15T12:41:44.674Z,13.17
2024-04-15T12:46:46.114Z,13.20
2024-04-15T12:51:47.505Z,13.24
2024-04-15T12:56:49.476Z,13.29
2024-04-15T13:02:01.955Z,13.33
2024-04-15T13:07:09.872Z,13.38
2024-04-15T13:12:14.355Z,13.47
2024-04-15T13:17:15.799Z,13.58
2024-04-15T13:22:17.409Z,13.67
2024-04-15T13:27:19.981Z,13.73
2024-04-15T13:32:21.899Z,13.79
2024-04-15T13:37:25.398Z,13.79
2024-04-15T13:42:27.272Z,13.73
2024-04-15T13:47:28.717Z,13.57
2024-04-15T13:52:30.166Z,13.42
2024-04-15T13:57:31.812Z,13.30
2024-04-15T14:02:33.551Z,13.24
2024-04-15T14:07:35.050Z,13.20
2024-04-15T14:12:36.515Z,13.16
2024-04-15T14:17:38.836Z,13.13
2024-04-15T14:22:40.283Z,13.08
2024-04-15T14:27:42.017Z,13.11
2024-04-15T14:32:44.531Z,13.23
2024-04-15T14:37:46.254Z,13.30
2024-04-15T14:42:47.974Z,13.28
2024-04-15T14:47:50.304Z,13.22
2024-04-15T14:52:52.041Z,13.11
2024-04-15T14:57:53.544Z,13.04
2024-04-15T15:02:55.030Z,12.96
2024-04-15T15:07:56.513Z,12.88
2024-04-15T15:12:58.462Z,12.80
2024-04-15T15:18:00.249Z,12.71
2024-04-15T15:23:01.869Z,12.64
2024-04-15T15:28:03.692Z,12.61
2024-04-15T15:33:05.499Z,12.57
2024-04-15T15:38:09.292Z,12.55
2024-04-15T15:43:10.822Z,12.53
2024-04-15T15:48:12.372Z,12.53
2024-04-15T15:53:14.233Z,12.52
2024-04-15T15:58:16.020Z,12.48
2024-04-15T16:03:21.489Z,12.44
2024-04-15T16:08:23.313Z,12.43
2024-04-15T16:13:24.821Z,12.41
2024-04-15T16:18:26.417Z,12.42
2024-04-15T16:23:28.076Z,12.44
2024-04-15T16:28:29.740Z,12.49
2024-04-15T16:33:33.214Z,12.50
2024-04-15T16:38:35.709Z,12.50
2024-04-15T16:43:37.175Z,12.50
2024-04-15T16:48:38.627Z,12.50
2024-04-15T16:53:40.271Z,12.50
2024-04-15T16:58:41.988Z,12.48
2024-04-15T17:03:43.471Z,12.46
2024-04-15T17:08:45.003Z,12.46
2024-04-15T17:13:46.907Z,12.45
2024-04-15T17:18:49.644Z,12.44
2024-04-15T17:23:52.340Z,12.43
2024-04-15T17:28:53.842Z,12.42
2024-04-15T17:33:55.318Z,12.40
2024-04-15T17:38:57.540Z,12.37
2024-04-15T17:43:58.969Z,12.37
2024-04-15T17:49:01.242Z,12.33
2024-04-15T17:54:03.348Z,12.32
2024-04-15T17:59:05.155Z,12.28
2024-04-15T18:04:06.941Z,12.23
2024-04-15T18:09:08.513Z,12.16
2024-04-15T18:14:10.811Z,12.13
2024-04-15T18:19:12.884Z,12.09
2024-04-15T18:24:14.924Z,12.09
2024-04-15T18:29:16.411Z,12.07
2024-04-15T18:34:17.971Z,12.06
2024-04-15T18:39:22.752Z,12.03
2024-04-15T18:44:24.303Z,11.99
2024-04-15T18:49:26.161Z,11.97
2024-04-15T18:54:27.793Z,11.95
2024-04-15T18:59:29.209Z,11.96
2024-04-15T19:04:30.728Z,11.96
2024-04-15T19:09:32.296Z,11.96
2024-04-15T19:14:45.804Z,11.94
2024-04-15T19:19:55.371Z,11.89
2024-04-15T19:24:56.972Z,11.87
2024-04-15T19:29:58.532Z,11.83
2024-04-15T19:35:00.409Z,11.79
2024-04-15T19:40:01.974Z,11.75
2024-04-15T19:45:05.614Z,11.73
2024-04-15T19:50:08.761Z,11.70
2024-04-15T19:55:10.305Z,11.68
2024-04-15T20:00:13.126Z,11.67
2024-04-15T20:05:15.256Z,11.66
2024-04-15T20:10:16.954Z,11.66
2024-04-15T20:15:18.516Z,11.64
2024-04-15T20:20:29.308Z,11.61
2024-04-15T20:25:31.338Z,11.58
2024-04-15T20:30:37.678Z,11.51
2024-04-15T20:35:39.211Z,11.45
2024-04-15T20:40:41.750Z,11.40
2024-04-15T20:45:49.826Z,11.35
2024-04-15T20:50:51.285Z,11.26
2024-04-15T20:55:53.009Z,11.20
2024-04-15T21:00:57.115Z,11.13
2024-04-15T21:05:59.338Z,11.05
2024-04-15T21:11:01.221Z,10.98
2024-04-15T21:16:03.045Z,10.94
2024-04-15T21:21:04.922Z,10.89
2024-04-15T21:26:08.505Z,10.85
2024-04-15T21:31:10.176Z,10.91
2024-04-15T21:36:11.839Z,10.96
2024-04-15T21:41:13.334Z,10.98
2024-04-15T21:46:14.894Z,10.97
2024-04-15T21:51:16.340Z,10.91
2024-04-15T21:56:18.225Z,10.85
2024-04-15T22:01:19.730Z,10.77
2024-04-15T22:06:21.235Z,10.69
2024-04-15T22:11:22.758Z,10.62
2024-04-15T22:16:25.258Z,10.60
2024-04-15T22:21:27.095Z,10.59
2024-04-15T22:26:29.166Z,10.60
2024-04-15T22:31:30.656Z,10.56
2024-04-15T22:36:32.223Z,10.51
2024-04-15T22:41:33.734Z,10.44
2024-04-15T22:46:35.274Z,10.40
2024-04-15T22:51:36.828Z,10.35
2024-04-15T22:56:38.375Z,10.28
2024-04-15T23:01:40.001Z,10.25
2024-04-15T23:06:42.045Z,10.22
2024-04-15T23:11:43.516Z,10.20
2024-04-15T23:16:45.148Z,10.17
2024-04-15T23:21:46.708Z,10.17
2024-04-15T23:26:48.149Z,10.11
2024-04-15T23:31:49.616Z,10.02
2024-04-15T23:36:51.066Z,9.92
2024-04-15T23:41:52.626Z,9.87
2024-04-15T23:46:54.250Z,9.81
2024-04-15T23:51:55.830Z,9.75
2024-04-15T23:56:57.310Z,9.66
